Time;durP1;ratioP1;P1;durP2;ratioP2;P2;SDS_P1;SDS_P2;PMS_P1;PMS_P2;Temp;Humidity;BMP_temperature;BMP_pressure;BME280_temperature;BME280_humidity;BME280_pressure;Samples;Min_cycle;Max_cycle;Signal;HPM_P1;HPM_P2
2021/04/03 00:00:19;;;;;;;11.40;8.27;;;;;;;15.37;50.24;99056.03;5014235;28;20459;-78
2021/04/03 00:02:46;;;;;;;13.15;8.75;;;;;;;15.46;49.94;99073.34;5014192;28;20029;-78
2021/04/03 00:05:12;;;;;;;11.82;8.35;;;;;;;15.69;50.58;99110.00;5014113;28;20040;-78
2021/04/03 00:07:39;;;;;;;14.07;9.00;;;;;;;15.60;50.75;99098.78;5014223;28;20428;-78
2021/04/03 00:10:17;;;;;;;9.50;8.32;;;;;;;15.75;50.64;99125.06;5013977;28;20121;-79
2021/04/03 00:12:43;;;;;;;12.23;8.90;;;;;;;15.66;50.85;99097.13;5017898;28;20300;-79
2021/04/03 00:15:09;;;;;;;14.13;10.60;;;;;;;15.34;50.53;99067.94;5017743;28;20101;-78
2021/04/03 00:17:35;;;;;;;11.45;8.35;;;;;;;15.31;50.78;99052.41;5017538;28;20025;-78
2021/04/03 00:20:01;;;;;;;10.57;8.50;;;;;;;15.46;50.67;99081.31;5017507;28;20112;-78
2021/04/03 00:22:26;;;;;;;9.35;7.50;;;;;;;15.15;51.03;99024.53;5017609;28;20033;-79
2021/04/03 00:24:52;;;;;;;10.93;8.13;;;;;;;15.69;50.97;99115.31;5017630;28;20109;-77
2021/04/03 00:27:17;;;;;;;15.55;8.50;;;;;;;15.62;51.01;99094.09;5017494;28;20021;-79
2021/04/03 00:29:43;;;;;;;9.52;7.72;;;;;;;15.62;50.72;99096.75;5017448;28;20022;-77
2021/04/03 00:32:09;;;;;;;8.43;7.55;;;;;;;15.30;50.75;99044.66;5016183;28;20395;-78
2021/04/03 00:34:35;;;;;;;10.60;7.60;;;;;;;15.70;51.06;99107.09;5017719;28;20033;-77
2021/04/03 00:37:01;;;;;;;9.55;7.57;;;;;;;15.63;50.90;99094.91;5017629;28;20093;-77
2021/04/03 00:39:26;;;;;;;12.38;9.13;;;;;;;15.72;50.90;99094.38;5017564;28;20021;-77
2021/04/03 00:41:52;;;;;;;10.98;8.25;;;;;;;15.35;50.97;99048.28;5017369;28;20164;-78
2021/04/03 00:44:18;;;;;;;13.43;9.70;;;;;;;15.68;50.73;99105.69;5017398;28;20041;-77
2021/04/03 00:46:43;;;;;;;15.38;10.40;;;;;;;15.29;50.79;99043.84;5016307;28;20131;-78
2021/04/03 00:49:09;;;;;;;14.27;9.18;;;;;;;15.63;50.97;99101.03;5016969;28;20433;-78
2021/04/03 00:51:34;;;;;;;14.55;9.45;;;;;;;15.65;50.71;99106.16;5017079;28;20022;-78
2021/04/03 00:54:00;;;;;;;12.18;9.63;;;;;;;15.35;51.26;99076.72;5016955;28;20096;-78
2021/04/03 00:56:25;;;;;;;11.55;9.52;;;;;;;15.42;50.79;99080.13;5015958;28;20344;-78
2021/04/03 00:58:52;;;;;;;10.32;8.93;;;;;;;15.55;51.11;99094.09;5016917;28;20021;-78
2021/04/03 01:01:17;;;;;;;10.95;8.80;;;;;;;15.28;51.10;99058.16;5016838;28;20132;-78
2021/04/03 01:03:43;;;;;;;11.90;9.73;;;;;;;15.60;51.47;99097.97;5016857;28;20026;-78
2021/04/03 01:06:09;;;;;;;15.25;10.02;;;;;;;15.29;51.16;99048.34;5015545;28;20030;-78
2021/04/03 01:08:34;;;;;;;11.35;9.35;;;;;;;15.25;51.59;99042.66;5015274;28;20084;-78
2021/04/03 01:11:01;;;;;;;15.20;9.73;;;;;;;15.55;51.63;99095.94;5015518;28;20036;-79
2021/04/03 01:13:42;;;;;;;14.63;9.73;;;;;;;15.57;51.34;99097.38;5015596;28;20029;-78
2021/04/03 01:16:16;;;;;;;17.23;9.88;;;;;;;15.55;51.44;99106.59;5016571;28;20061;-78
2021/04/03 01:19:03;;;;;;;12.43;9.48;;;;;;;15.57;51.53;99099.22;5016507;28;20022;-78
2021/04/03 01:22:05;;;;;;;11.68;8.45;;;;;;;15.55;51.79;99095.94;5016362;28;20413;-77
2021/04/03 01:24:56;;;;;;;11.15;7.32;;;;;;;15.55;51.34;99096.75;5015428;28;20037;-77
2021/04/03 01:27:24;;;;;;;9.65;7.53;;;;;;;15.57;51.67;99097.38;5016656;28;20044;-78
2021/04/03 01:30:17;;;;;;;10.13;7.32;;;;;;;15.30;51.63;99071.25;5016268;28;20048;-77
2021/04/03 01:32:52;;;;;;;9.80;8.35;;;;;;;15.09;51.52;99017.44;5016366;28;20037;-78
2021/04/03 01:35:25;;;;;;;9.25;8.35;;;;;;;15.40;51.74;99060.91;5016034;28;20057;-77
2021/04/03 01:37:57;;;;;;;10.82;7.97;;;;;;;15.25;51.47;99032.81;5016204;28;20329;-77
2021/04/03 01:40:24;;;;;;;14.48;9.05;;;;;;;15.21;51.60;99033.50;5016244;28;20049;-78
2021/04/03 01:42:53;;;;;;;12.45;8.68;;;;;;;15.15;51.81;99026.38;5016093;28;20417;-77
2021/04/03 01:45:21;;;;;;;10.45;8.10;;;;;;;15.10;51.99;99020.91;5014966;28;20029;-77
2021/04/03 01:47:49;;;;;;;12.88;8.75;;;;;;;15.16;51.94;99026.16;5015964;28;20037;-78
2021/04/03 01:50:16;;;;;;;14.38;8.95;;;;;;;15.41;51.92;99076.66;5015756;28;20041;-78
2021/04/03 01:52:42;;;;;;;13.85;8.57;;;;;;;15.44;51.98;99070.06;5015980;28;20025;-77
2021/04/03 01:55:12;;;;;;;17.27;9.13;;;;;;;15.43;52.16;99071.13;5014705;28;20030;-78
2021/04/03 01:57:39;;;;;;;13.38;9.00;;;;;;;15.51;51.91;99079.63;5015958;28;20356;-78
2021/04/03 02:00:25;;;;;;;14.20;10.98;;;;;;;14.88;52.46;98975.34;5014731;28;20456;-79
2021/04/03 02:02:52;;;;;;;12.10;10.25;;;;;;;15.48;52.17;99073.94;5014657;28;20033;-77
2021/04/03 02:05:20;;;;;;;15.27;11.13;;;;;;;15.05;51.91;99020.78;5015573;28;20033;-79
2021/04/03 02:07:47;;;;;;;14.40;13.00;;;;;;;15.50;52.27;99088.63;5015641;28;20105;-78
2021/04/03 02:10:16;;;;;;;10.40;9.40;;;;;;;15.51;52.03;99082.28;5014235;28;20056;-79
2021/04/03 02:12:44;;;;;;;12.50;9.15;;;;;;;15.49;51.96;99086.19;5015644;28;20022;-78
2021/04/03 02:15:11;;;;;;;9.85;7.88;;;;;;;15.48;52.02;99076.59;5014328;28;20112;-77
2021/04/03 02:17:37;;;;;;;9.07;7.40;;;;;;;15.30;52.33;99057.94;5014449;28;20037;-78
2021/04/03 02:20:08;;;;;;;9.50;8.45;;;;;;;15.03;52.23;99022.84;5015370;28;20053;-78
2021/04/03 02:22:34;;;;;;;13.55;9.20;;;;;;;15.40;52.30;99085.66;5015444;28;20026;-78
2021/04/03 02:25:04;;;;;;;13.27;9.07;;;;;;;15.39;52.43;99085.88;5015267;28;20029;-78
2021/04/03 02:27:29;;;;;;;12.95;9.02;;;;;;;14.85;52.49;99003.13;5014229;28;20026;-77
2021/04/03 02:29:55;;;;;;;11.68;7.70;;;;;;;15.36;52.48;99092.47;5015042;28;20507;-78
2021/04/03 02:32:20;;;;;;;9.38;8.23;;;;;;;15.31;52.71;99099.47;5015338;28;20026;-78
2021/04/03 02:34:46;;;;;;;9.70;8.70;;;;;;;15.16;52.54;99071.38;5014693;28;20360;-79
2021/04/03 02:37:11;;;;;;;10.85;8.80;;;;;;;14.96;52.77;99049.47;5015115;28;20036;-79
2021/04/03 02:39:37;;;;;;;9.80;8.80;;;;;;;14.71;52.81;99009.59;5015318;28;20030;-78
2021/04/03 02:42:11;;;;;;;10.13;9.13;;;;;;;15.27;52.70;99102.56;5013875;28;20041;-78
2021/04/03 02:44:45;;;;;;;9.40;8.23;;;;;;;15.29;52.69;99098.88;5014985;28;20029;-78
2021/04/03 02:47:16;;;;;;;11.80;9.07;;;;;;;15.17;52.80;99083.66;5014939;28;20022;-78
2021/04/03 02:49:47;;;;;;;11.47;8.17;;;;;;;15.11;53.08;99078.38;5015136;28;20026;-78
2021/04/03 02:52:13;;;;;;;11.73;8.70;;;;;;;14.86;53.03;99051.78;5014961;28;20040;-77
2021/04/03 02:54:41;;;;;;;12.07;9.52;;;;;;;14.78;53.04;99028.13;5014971;28;20097;-78
2021/04/03 02:57:09;;;;;;;10.40;9.30;;;;;;;14.81;53.03;99041.81;5014745;28;20064;-78
2021/04/03 02:59:38;;;;;;;10.35;8.85;;;;;;;14.80;53.17;99045.50;5014902;28;20026;-77
2021/04/03 03:02:05;;;;;;;10.63;8.95;;;;;;;14.75;53.41;99060.47;5013721;28;20037;-78
2021/04/03 03:04:31;;;;;;;9.65;8.65;;;;;;;15.07;53.49;99101.13;5015153;28;20117;-78
2021/04/03 03:06:58;;;;;;;12.48;9.35;;;;;;;15.04;53.46;99086.41;5014955;28;20030;-78
2021/04/03 03:09:26;;;;;;;11.05;8.80;;;;;;;15.02;53.50;99088.47;5013762;28;20445;-78
2021/04/03 03:11:56;;;;;;;12.13;9.27;;;;;;;15.01;53.50;99094.03;5013952;28;20030;-77
2021/04/03 03:14:25;;;;;;;11.60;9.43;;;;;;;14.90;53.50;99083.06;5015192;28;20115;-77
2021/04/03 03:16:52;;;;;;;11.05;9.90;;;;;;;14.92;53.70;99078.34;5014955;28;20372;-78
2021/04/03 03:19:20;;;;;;;14.20;10.07;;;;;;;14.59;53.83;99024.63;5014801;28;20026;-78
2021/04/03 03:21:46;;;;;;;15.43;11.02;;;;;;;14.72;53.80;99052.94;5013893;28;20049;-77
2021/04/03 03:24:13;;;;;;;12.60;10.25;;;;;;;14.79;53.78;99059.00;5013703;28;20029;-78
2021/04/03 03:26:40;;;;;;;11.85;10.68;;;;;;;14.79;54.18;99056.34;5014615;28;20080;-77
2021/04/03 03:29:07;;;;;;;12.85;10.73;;;;;;;14.87;54.05;99074.72;5013553;28;20032;-78
2021/04/03 03:31:33;;;;;;;15.25;11.38;;;;;;;14.86;54.22;99071.25;5014651;28;20113;-77
2021/04/03 03:33:59;;;;;;;12.48;10.25;;;;;;;14.74;54.14;99050.88;5014624;28;20137;-78
2021/04/03 03:36:27;;;;;;;12.65;10.80;;;;;;;14.74;54.13;99054.34;5014646;28;20033;-78
2021/04/03 03:38:53;;;;;;;11.82;10.73;;;;;;;14.81;54.33;99073.69;5014632;28;20057;-77
2021/04/03 03:41:19;;;;;;;16.70;12.45;;;;;;;14.70;54.42;99060.31;5014409;28;20333;-78
2021/04/03 03:43:46;;;;;;;19.17;14.85;;;;;;;14.46;54.60;99024.72;5014683;28;20025;-77
2021/04/03 03:46:12;;;;;;;19.02;15.15;;;;;;;14.62;54.45;99051.56;5017969;28;20033;-77
2021/04/03 03:48:37;;;;;;;19.40;15.07;;;;;;;14.21;54.65;98990.94;5017413;28;20022;-79
2021/04/03 03:51:03;;;;;;;21.02;15.63;;;;;;;14.55;54.50;99050.00;5018264;28;20083;-77
2021/04/03 03:53:28;;;;;;;15.27;13.32;;;;;;;14.51;54.77;99046.13;5018213;28;20318;-77
2021/04/03 03:55:54;;;;;;;16.80;13.77;;;;;;;14.56;54.87;99065.72;5018253;28;20032;-78
2021/04/03 03:58:21;;;;;;;18.30;13.02;;;;;;;14.68;54.82;99075.66;5018086;28;20400;-78
2021/04/03 04:00:46;;;;;;;19.25;12.38;;;;;;;14.65;54.97;99070.75;5018123;28;20030;-78
2021/04/03 04:03:11;;;;;;;17.73;12.88;;;;;;;14.45;55.12;99045.16;5017910;28;20036;-78
2021/04/03 04:05:37;;;;;;;16.95;13.77;;;;;;;14.49;54.74;99062.28;5018191;28;20026;-77
2021/04/03 04:08:03;;;;;;;16.23;11.88;;;;;;;14.31;54.83;99025.81;5017795;28;20040;-78
2021/04/03 04:10:28;;;;;;;16.33;12.60;;;;;;;14.66;54.79;99091.00;5016671;28;20084;-78
2021/04/03 04:12:54;;;;;;;15.35;13.07;;;;;;;14.55;54.93;99088.00;5017818;28;20105;-78
2021/04/03 04:15:19;;;;;;;13.50;12.13;;;;;;;14.42;54.92;99060.69;5017808;28;20030;-77
2021/04/03 04:17:45;;;;;;;17.98;13.00;;;;;;;14.57;54.73;99071.84;5017851;28;20125;-78
2021/04/03 04:20:12;;;;;;;18.67;13.70;;;;;;;14.45;54.86;99061.09;5017698;28;20152;-77
2021/04/03 04:22:37;;;;;;;16.63;13.95;;;;;;;14.52;54.76;99075.16;5017962;28;20467;-78
2021/04/03 04:25:03;;;;;;;15.02;13.23;;;;;;;14.60;54.92;99098.78;5016495;28;20034;-78
2021/04/03 04:27:29;;;;;;;16.33;13.45;;;;;;;14.50;54.95;99077.19;5017663;28;20096;-77
2021/04/03 04:29:54;;;;;;;18.23;14.38;;;;;;;14.61;55.01;99095.09;5016454;28;20077;-77
2021/04/03 04:32:20;;;;;;;15.05;13.45;;;;;;;14.61;54.91;99087.13;5016374;28;20061;-78
2021/04/03 04:34:45;;;;;;;15.77;14.07;;;;;;;14.46;54.81;99072.53;5017466;28;20025;-78
2021/04/03 04:37:11;;;;;;;19.40;15.52;;;;;;;14.64;54.89;99085.91;5017289;28;20136;-79
2021/04/03 04:39:36;;;;;;;21.20;15.32;;;;;;;14.57;54.97;99085.13;5017348;28;20036;-78
2021/04/03 04:42:04;;;;;;;22.38;16.35;;;;;;;14.57;55.10;99074.50;5016061;28;20029;-78
2021/04/03 04:44:30;;;;;;;20.33;14.70;;;;;;;14.58;54.67;99089.41;5016167;28;20026;-77
2021/04/03 04:46:55;;;;;;;20.05;16.48;;;;;;;14.71;54.58;99089.31;5017145;28;20425;-79
2021/04/03 04:49:21;;;;;;;18.83;16.90;;;;;;;14.76;54.62;99088.66;5017018;28;20113;-78
2021/04/03 04:51:46;;;;;;;17.55;15.68;;;;;;;14.22;54.43;99005.84;5017113;28;20438;-78
2021/04/03 04:54:12;;;;;;;21.58;17.75;;;;;;;14.63;54.48;99069.13;5017026;28;20026;-79
2021/04/03 04:56:37;;;;;;;23.00;17.88;;;;;;;14.75;54.45;99090.50;5016399;28;20057;-78
2021/04/03 04:59:02;;;;;;;21.52;17.27;;;;;;;14.84;54.21;99097.19;5037122;23;20065;-78
2021/04/03 05:01:28;;;;;;;20.55;16.55;;;;;;;14.62;54.42;99074.66;5036646;28;20104;-78
2021/04/03 05:03:53;;;;;;;18.98;14.65;;;;;;;14.85;54.19;99103.31;5019176;28;20083;-78
2021/04/03 05:06:19;;;;;;;14.88;13.35;;;;;;;14.90;54.05;99098.19;5036354;28;20057;-78
2021/04/03 05:08:44;;;;;;;14.65;13.13;;;;;;;14.61;53.99;99047.28;5036485;28;20428;-78
2021/04/03 05:11:09;;;;;;;14.70;12.60;;;;;;;14.95;53.96;99093.03;5036228;28;20416;-78
2021/04/03 05:13:35;;;;;;;16.52;14.48;;;;;;;14.76;53.92;99054.13;5036493;28;20025;-78
2021/04/03 05:16:00;;;;;;;18.58;16.45;;;;;;;15.03;53.72;99091.97;5036180;28;20025;-78
2021/04/03 05:18:26;;;;;;;18.52;15.82;;;;;;;14.54;53.32;99019.94;5036346;28;20421;-77
2021/04/03 05:20:51;;;;;;;18.17;15.70;;;;;;;14.77;53.61;99050.44;5036375;28;20029;-78
2021/04/03 05:23:18;;;;;;;19.02;16.58;;;;;;;14.85;53.40;99052.81;5036215;28;20116;-78
2021/04/03 05:25:43;;;;;;;21.30;16.15;;;;;;;14.98;53.52;99081.97;5036268;28;20036;-79
2021/04/03 05:28:09;;;;;;;22.40;16.40;;;;;;;15.24;53.15;99100.34;5018436;28;20120;-78
2021/04/03 05:30:34;;;;;;;21.13;15.90;;;;;;;15.04;52.99;99081.09;5036012;28;20037;-78
2021/04/03 05:32:59;;;;;;;19.17;16.42;;;;;;;14.84;52.87;99035.25;5036007;28;20040;-78
2021/04/03 05:35:25;;;;;;;20.75;16.27;;;;;;;15.03;52.97;99060.06;5036153;28;20036;-78
2021/04/03 05:37:50;;;;;;;17.63;13.88;;;;;;;15.46;52.59;99108.72;5018360;28;20048;-78
2021/04/03 05:40:16;;;;;;;16.42;14.73;;;;;;;15.33;52.42;99073.47;5035896;28;20029;-78
2021/04/03 05:42:46;;;;;;;16.38;14.10;;;;;;;14.85;52.46;98983.72;5036552;28;20455;-78
2021/04/03 05:45:16;;;;;;;17.70;15.85;;;;;;;15.68;52.12;99106.50;5036165;28;20115;-77
2021/04/03 05:47:42;;;;;;;16.95;14.75;;;;;;;15.65;52.09;99106.16;5036250;28;20132;-78
2021/04/03 05:50:08;;;;;;;14.15;12.68;;;;;;;15.61;52.06;99100.44;5035758;28;20114;-77
2021/04/03 05:52:34;;;;;;;18.13;14.70;;;;;;;15.74;51.85;99104.81;5036083;28;20030;-78
2021/04/03 05:55:01;;;;;;;17.75;14.55;;;;;;;15.73;51.81;99103.19;5018108;28;20140;-78
2021/04/03 05:57:27;;;;;;;16.30;13.68;;;;;;;15.17;51.90;98990.56;5035450;28;20022;-78
2021/04/03 05:59:52;;;;;;;13.35;11.68;;;;;;;15.47;51.92;99048.34;5017981;28;20028;-77
2021/04/03 06:02:17;;;;;;;15.88;13.52;;;;;;;15.87;51.78;99094.00;5035289;28;20033;-78
2021/04/03 06:04:43;;;;;;;14.52;13.00;;;;;;;15.80;51.60;99072.78;5035635;28;20028;-78
2021/04/03 06:07:08;;;;;;;15.10;13.50;;;;;;;16.05;51.84;99109.97;5017824;28;20029;-78
2021/04/03 06:09:36;;;;;;;14.70;13.13;;;;;;;16.08;51.46;99109.53;5034488;28;20444;-77
2021/04/03 06:12:02;;;;;;;15.32;13.70;;;;;;;15.81;51.44;99071.75;5035094;28;20021;-78
2021/04/03 06:14:34;;;;;;;14.75;13.25;;;;;;;15.93;51.30;99082.47;5017929;28;20030;-78
2021/04/03 06:17:00;;;;;;;14.90;13.15;;;;;;;16.13;51.13;99116.84;5035227;28;20030;-78
2021/04/03 06:19:25;;;;;;;14.20;11.70;;;;;;;15.99;51.57;99086.91;5035204;28;20109;-78
2021/04/03 06:21:51;;;;;;;11.98;10.73;;;;;;;16.19;51.24;99118.59;5017587;28;20017;-78
2021/04/03 06:24:19;;;;;;;11.38;10.27;;;;;;;16.17;51.32;99115.34;5017427;28;20026;-79
2021/04/03 06:27:17;;;;;;;12.75;11.43;;;;;;;15.70;51.38;99015.81;5017557;28;20033;-78
2021/04/03 06:29:49;;;;;;;11.30;10.20;;;;;;;16.31;50.56;99100.81;5019943;28;20449;-78
2021/04/03 06:32:29;;;;;;;13.85;10.40;;;;;;;15.96;50.73;99039.41;5017309;28;20032;-79
2021/04/03 06:34:55;;;;;;;14.32;11.80;;;;;;;16.25;50.23;99066.28;5035015;28;20057;-78
2021/04/03 06:37:31;;;;;;;16.10;12.45;;;;;;;16.35;50.27;99063.88;5034854;28;20071;-78
2021/04/03 06:40:03;;;;;;;15.02;11.65;;;;;;;16.76;50.31;99116.44;5034763;28;20100;-79
2021/04/03 06:42:34;;;;;;;;;;;;;;;16.76;50.25;99113.75;5035220;28;20039;-78
2021/04/03 06:45:17;;;;;;;13.15;11.73;;;;;;;16.63;49.97;99073.94;5034771;28;19913;-78
2021/04/03 06:47:43;;;;;;;13.60;11.40;;;;;;;16.67;49.88;99067.97;5034667;28;20029;-78
2021/04/03 06:50:09;;;;;;;12.40;11.07;;;;;;;16.88;49.28;99069.28;5034479;28;20108;-79
2021/04/03 06:52:35;;;;;;;13.93;11.57;;;;;;;17.02;49.27;99086.66;5034576;28;20467;-79
2021/04/03 06:55:01;;;;;;;13.10;10.82;;;;;;;17.27;49.10;99120.34;5017115;28;20033;-78
2021/04/03 06:57:28;;;;;;;11.48;10.20;;;;;;;16.96;48.60;99041.44;5034501;28;20029;-79
2021/04/03 06:59:54;;;;;;;12.48;11.02;;;;;;;17.36;48.60;99090.41;5034749;28;20014;-78
2021/04/03 07:02:22;;;;;;;10.85;9.18;;;;;;;17.30;48.26;99058.50;5034393;28;20044;-78
2021/04/03 07:04:47;;;;;;;10.30;9.20;;;;;;;17.47;48.08;99075.44;5017112;28;20339;-79
2021/04/03 07:07:13;;;;;;;11.43;10.02;;;;;;;17.75;47.71;99096.91;5034335;28;20026;-77
2021/04/03 07:09:41;;;;;;;11.82;8.52;;;;;;;17.99;46.86;99107.56;5016799;28;20026;-78
2021/04/03 07:12:07;;;;;;;10.82;9.52;;;;;;;17.97;46.75;99109.66;5034312;28;20097;-78
2021/04/03 07:14:35;;;;;;;12.23;9.45;;;;;;;18.07;46.55;99107.19;5034249;28;20042;-79
2021/04/03 07:17:01;;;;;;;15.75;10.25;;;;;;;17.81;46.04;99051.59;5034356;28;20424;-79
2021/04/03 07:19:28;;;;;;;12.70;10.20;;;;;;;18.18;45.98;99097.50;5017833;28;20021;-79
2021/04/03 07:21:54;;;;;;;11.93;10.73;;;;;;;18.14;46.00;99102.50;5038336;28;20329;-78
2021/04/03 07:24:21;;;;;;;11.18;9.48;;;;;;;18.01;45.95;99074.22;5038266;28;20087;-79
2021/04/03 07:26:49;;;;;;;11.00;9.77;;;;;;;18.23;45.54;99102.94;5020863;28;20025;-79
2021/04/03 07:29:42;;;;;;;16.60;10.13;;;;;;;18.29;45.71;99100.13;5038331;28;20068;-79
2021/04/03 07:32:08;;;;;;;14.02;10.43;;;;;;;18.35;45.19;99083.13;5038250;28;20029;-79
2021/04/03 07:34:40;;;;;;;13.90;10.80;;;;;;;18.51;44.93;99115.47;5020746;28;20357;-79
2021/04/03 07:37:10;;;;;;;12.23;10.27;;;;;;;18.59;44.88;99102.56;5038394;28;20345;-78
2021/04/03 07:39:39;;;;;;;11.60;10.32;;;;;;;18.68;44.75;99105.69;5038414;28;20028;-79
2021/04/03 07:42:06;;;;;;;13.88;10.60;;;;;;;18.65;44.79;99101.63;5037972;28;20100;-79
2021/04/03 07:44:34;;;;;;;10.68;9.65;;;;;;;18.75;44.61;99102.88;5038012;28;20037;-79
2021/04/03 07:47:19;;;;;;;11.65;10.40;;;;;;;18.70;44.84;99109.75;5037967;28;20321;-79
2021/04/03 07:49:45;;;;;;;11.00;8.90;;;;;;;18.68;44.98;99117.19;5037927;28;20403;-77
2021/04/03 07:52:11;;;;;;;12.25;9.65;;;;;;;18.79;44.92;99104.00;5037879;28;20021;-78
2021/04/03 07:54:37;;;;;;;11.07;9.18;;;;;;;18.79;45.13;99090.63;5020310;28;20028;-80
2021/04/03 07:57:09;;;;;;;11.55;10.27;;;;;;;18.90;45.25;99109.28;5037874;28;20031;-79
2021/04/03 07:59:44;;;;;;;10.55;9.50;;;;;;;18.85;45.39;99109.19;5037695;28;20053;-79
2021/04/03 08:02:29;;;;;;;11.35;10.25;;;;;;;18.39;45.26;99044.19;5037651;28;20060;-79
2021/04/03 08:04:56;;;;;;;13.23;10.68;;;;;;;18.36;45.30;99023.28;5037931;28;20037;-79
2021/04/03 08:07:24;;;;;;;12.43;10.82;;;;;;;18.94;44.94;99090.88;5037449;28;20025;-79
2021/04/03 08:09:50;;;;;;;10.50;9.50;;;;;;;18.90;44.99;99079.84;5037739;28;20028;-79
2021/04/03 08:12:16;;;;;;;13.10;11.00;;;;;;;19.15;44.84;99110.72;5019898;28;20022;-78
2021/04/03 08:14:43;;;;;;;12.45;9.98;;;;;;;19.10;44.74;99092.72;5037732;28;20357;-77
2021/04/03 08:17:09;;;;;;;10.85;9.68;;;;;;;19.15;44.92;99103.50;5038469;28;20033;-79
2021/04/03 08:19:37;;;;;;;12.50;10.38;;;;;;;19.25;44.78;99105.53;5038116;28;20104;-77
2021/04/03 08:22:08;;;;;;;12.45;9.55;;;;;;;18.98;45.07;99046.53;5037499;28;20028;-79
2021/04/03 08:24:33;;;;;;;12.17;9.57;;;;;;;19.36;44.74;99101.97;5019869;28;20028;-78
2021/04/03 08:27:00;;;;;;;13.38;10.18;;;;;;;19.19;44.94;99071.72;5037218;28;20033;-78
2021/04/03 08:29:29;;;;;;;12.32;10.57;;;;;;;19.45;44.80;99103.19;5037045;28;20036;-78
2021/04/03 08:31:57;;;;;;;11.02;9.88;;;;;;;19.29;44.74;99074.53;5036150;28;20035;-78
2021/04/03 08:34:23;;;;;;;12.00;10.80;;;;;;;19.56;44.69;99094.25;5037018;28;20444;-78
2021/04/03 08:36:50;;;;;;;11.60;9.75;;;;;;;19.58;44.44;99105.53;5037081;28;20049;-78
2021/04/03 08:39:18;;;;;;;14.23;9.80;;;;;;;19.56;44.38;99091.59;5036867;28;20026;-78
2021/04/03 08:41:46;;;;;;;12.00;9.32;;;;;;;19.63;44.15;99102.13;5036766;28;20029;-78
2021/04/03 08:44:19;;;;;;;13.15;11.00;;;;;;;19.55;44.20;99097.19;5019281;28;20063;-78
2021/04/03 08:46:48;;;;;;;12.23;10.77;;;;;;;19.35;44.26;99058.34;5036869;28;20036;-78
2021/04/03 08:49:22;;;;;;;13.13;10.00;;;;;;;19.55;44.39;99047.13;5036650;28;20056;-78
2021/04/03 08:51:48;;;;;;;12.77;10.38;;;;;;;19.64;44.41;99055.53;5036903;28;20024;-78
2021/04/03 08:54:13;;;;;;;11.40;10.25;;;;;;;19.56;44.37;99019.28;5036597;28;20025;-79
2021/04/03 08:56:39;;;;;;;12.88;10.15;;;;;;;19.99;44.22;99069.34;5036674;28;20056;-79
2021/04/03 08:59:11;;;;;;;12.40;10.27;;;;;;;19.74;44.03;99006.63;5036329;28;20359;-80
2021/04/03 09:01:39;;;;;;;11.10;9.60;;;;;;;20.26;43.89;99055.19;5018998;28;20028;-79
2021/04/03 09:04:08;;;;;;;12.38;10.20;;;;;;;20.44;43.34;99062.91;5036561;28;20399;-79
2021/04/03 09:06:54;;;;;;;11.80;10.60;;;;;;;20.36;42.92;99057.97;5036556;28;20083;-80
2021/04/03 09:09:20;;;;;;;12.30;10.10;;;;;;;20.62;42.74;99062.53;5036288;28;20045;-79
2021/04/03 09:11:52;;;;;;;12.40;10.52;;;;;;;20.66;42.77;99060.16;5036458;28;20430;-79
2021/04/03 09:14:53;;;;;;;14.52;10.43;;;;;;;20.82;42.75;99061.91;5018752;28;20036;-79
2021/04/03 09:17:26;;;;;;;13.38;9.93;;;;;;;21.00;42.47;99062.59;5036135;28;20026;-79
2021/04/03 09:20:03;;;;;;;13.23;10.40;;;;;;;20.70;42.32;99015.66;5036403;28;20039;-79
2021/04/03 09:22:38;;;;;;;14.38;10.93;;;;;;;20.31;42.10;98964.88;5036022;28;20032;-79
2021/04/03 09:25:11;;;;;;;13.68;10.38;;;;;;;20.74;42.68;99054.31;5018652;28;20026;-80
2021/04/03 09:27:37;;;;;;;13.45;10.93;;;;;;;20.91;42.74;99055.00;5036015;28;20017;-79
2021/04/03 09:30:13;;;;;;;14.63;10.40;;;;;;;21.01;42.21;99015.91;5035883;28;20029;-81
2021/04/03 09:32:43;;;;;;;13.88;10.73;;;;;;;21.45;41.96;99045.97;5036177;28;20025;-79
2021/04/03 09:35:12;;;;;;;27.23;11.55;;;;;;;21.35;41.72;99014.50;5035941;28;20029;-80
2021/04/03 09:37:38;;;;;;;14.52;10.57;;;;;;;21.18;41.86;99005.78;5035895;28;20444;-78
2021/04/03 09:40:06;;;;;;;13.32;10.52;;;;;;;21.33;42.18;99040.00;5035835;28;20018;-79
2021/04/03 09:42:32;;;;;;;14.82;10.40;;;;;;;21.35;42.21;99045.94;5035581;28;20017;-79
2021/04/03 09:44:59;;;;;;;15.18;10.93;;;;;;;21.40;42.17;99014.53;5035674;28;20115;-79
2021/04/03 09:47:26;;;;;;;13.43;10.23;;;;;;;21.71;41.97;99039.69;5018093;28;20475;-79
2021/04/03 09:49:52;;;;;;;14.20;10.00;;;;;;;21.81;41.59;99030.84;5035469;28;20055;-80
2021/04/03 09:52:19;;;;;;;14.02;9.40;;;;;;;21.95;41.47;99034.66;5035391;28;20025;-79
2021/04/03 09:54:45;;;;;;;13.45;9.70;;;;;;;21.67;41.15;98978.69;5018201;28;20040;-79
2021/04/03 09:57:13;;;;;;;12.95;9.43;;;;;;;21.66;41.04;98982.44;5035375;28;20029;-79
2021/04/03 09:59:42;;;;;;;10.85;8.85;;;;;;;21.84;40.40;98960.44;5035310;28;20543;-79
2021/04/03 10:02:09;;;;;;;10.07;8.95;;;;;;;22.41;39.35;99024.03;5035361;28;20025;-80
2021/04/03 10:04:35;;;;;;;13.13;9.55;;;;;;;22.42;39.13;98998.75;5035479;28;20037;-78
2021/04/03 10:07:00;;;;;;;10.82;8.48;;;;;;;22.73;38.98;99021.09;5035349;28;20026;-79
2021/04/03 10:09:26;;;;;;;11.45;9.20;;;;;;;22.75;38.49;98986.63;5017538;28;20104;-80
2021/04/03 10:11:52;;;;;;;16.50;8.77;;;;;;;22.82;38.25;98993.38;5035241;28;20021;-79
2021/04/03 10:14:18;;;;;;;11.10;8.50;;;;;;;22.80;37.85;98940.91;5035045;28;20025;-78
2021/04/03 10:16:43;;;;;;;9.48;8.25;;;;;;;23.41;37.32;98995.41;5035279;28;20025;-78
2021/04/03 10:19:09;;;;;;;9.88;8.75;;;;;;;23.55;37.36;99011.03;5035077;28;20090;-80
2021/04/03 10:21:34;;;;;;;9.68;8.30;;;;;;;23.42;37.46;98970.09;5035230;28;20032;-79
2021/04/03 10:24:00;;;;;;;9.07;8.18;;;;;;;23.80;37.18;98986.69;5035228;28;20033;-79
2021/04/03 10:26:27;;;;;;;11.25;8.80;;;;;;;24.06;37.04;99006.22;5017467;28;20030;-79
2021/04/03 10:28:52;;;;;;;10.88;9.57;;;;;;;24.09;37.31;98995.66;5034844;28;20025;-79
2021/04/03 10:31:18;;;;;;;13.57;10.23;;;;;;;24.06;37.07;98980.03;5034712;28;20035;-79
2021/04/03 10:33:44;;;;;;;11.73;9.07;;;;;;;24.03;36.68;98979.78;5034764;28;20109;-79
2021/04/03 10:36:10;;;;;;;11.90;8.85;;;;;;;24.17;36.56;98978.09;5034878;28;20104;-79
2021/04/03 10:38:36;;;;;;;10.55;8.93;;;;;;;24.20;36.13;98949.75;5034897;28;20055;-79
2021/04/03 10:41:03;;;;;;;13.95;9.57;;;;;;;24.57;35.94;98976.22;5034758;28;20021;-79
2021/04/03 10:43:29;;;;;;;14.02;9.68;;;;;;;24.67;35.77;98958.03;5034635;28;20033;-79
2021/04/03 10:45:55;;;;;;;12.38;9.38;;;;;;;24.79;35.32;98976.53;5035280;28;20025;-79
2021/04/03 10:48:20;;;;;;;12.68;8.73;;;;;;;24.34;35.58;98891.38;5035388;28;20017;-79
2021/04/03 10:50:46;;;;;;;11.48;9.35;;;;;;;24.50;35.12;98892.03;5034952;28;20018;-78
2021/04/03 10:53:11;;;;;;;12.15;9.45;;;;;;;24.48;35.78;98913.91;5034661;28;20108;-80
2021/04/03 10:55:38;;;;;;;13.02;9.48;;;;;;;24.89;34.94;98962.13;5034153;28;20036;-78
2021/04/03 10:58:03;;;;;;;10.52;9.23;;;;;;;24.72;35.05;98938.28;5034421;28;20049;-80
2021/04/03 11:00:29;;;;;;;12.10;9.00;;;;;;;25.06;35.12;98951.72;5034550;28;20025;-78
2021/04/03 11:02:55;;;;;;;10.23;8.65;;;;;;;25.12;34.48;98945.16;5034525;28;20432;-78
2021/04/03 11:05:22;;;;;;;10.05;8.25;;;;;;;25.26;34.32;98934.47;5034260;28;20059;-78
2021/04/03 11:07:48;;;;;;;9.65;8.38;;;;;;;25.53;33.98;98933.88;5034652;28;20029;-78
2021/04/03 11:10:13;;;;;;;10.82;8.98;;;;;;;25.38;33.89;98934.88;5034221;28;20108;-78
2021/04/03 11:12:40;;;;;;;11.38;8.68;;;;;;;25.38;33.61;98923.28;5034358;28;20053;-79
2021/04/03 11:15:06;;;;;;;11.55;7.43;;;;;;;25.43;33.29;98926.72;5016788;28;20483;-79
2021/04/03 11:17:32;;;;;;;10.35;8.73;;;;;;;25.41;33.15;98936.19;5034373;28;20428;-78
2021/04/03 11:19:57;;;;;;;11.68;8.75;;;;;;;24.75;33.29;98835.09;5034255;28;20033;-78
2021/04/03 11:22:24;;;;;;;10.32;9.07;;;;;;;25.16;33.38;98904.88;5034136;28;20028;-78
2021/04/03 11:24:50;;;;;;;10.85;8.23;;;;;;;25.19;33.11;98915.09;5034374;28;20451;-78